createdAt,value
2023-03-22T00:01:47.433Z,62.56
2023-03-22T00:04:14.098Z,63.16
2023-03-22T00:06:40.941Z,63.07
2023-03-22T00:09:07.584Z,62.55
2023-03-22T00:11:34.240Z,63.29
2023-03-22T00:14:00.948Z,63.12
2023-03-22T00:16:27.744Z,63.03
2023-03-22T00:18:54.451Z,63.65
2023-03-22T00:21:21.343Z,63.74
2023-03-22T00:23:48.010Z,63.61
2023-03-22T00:26:14.971Z,63.29
2023-03-22T00:28:42.322Z,63.50
2023-03-22T00:31:09.428Z,63.78
2023-03-22T00:33:36.399Z,63.77
2023-03-22T00:36:07.864Z,63.65
2023-03-22T00:38:44.853Z,63.67
2023-03-22T00:41:16.569Z,63.64
2023-03-22T00:43:43.308Z,63.28
2023-03-22T00:46:10.810Z,63.09
2023-03-22T00:48:37.485Z,63.22
2023-03-22T00:51:04.429Z,62.97
2023-03-22T00:53:32.936Z,63.38
2023-03-22T00:55:59.618Z,63.38
2023-03-22T00:58:26.471Z,63.03
2023-03-22T01:00:53.169Z,63.28
2023-03-22T01:03:22.054Z,62.83
2023-03-22T01:05:51.561Z,63.59
2023-03-22T01:08:18.255Z,63.05
2023-03-22T01:10:44.949Z,64.25
2023-03-22T01:13:12.415Z,64.36
2023-03-22T01:15:39.034Z,64.88
2023-03-22T01:18:05.882Z,64.59
2023-03-22T01:20:32.622Z,64.79
2023-03-22T01:22:59.620Z,64.58
2023-03-22T01:25:26.285Z,64.46
2023-03-22T01:27:54.021Z,64.79
2023-03-22T01:30:20.796Z,65.09
2023-03-22T01:32:47.477Z,65.28
2023-03-22T01:35:14.113Z,65.48
2023-03-22T01:37:40.773Z,65.65
2023-03-22T01:40:08.110Z,65.71
2023-03-22T01:42:34.814Z,65.85
2023-03-22T01:45:13.279Z,66.27
2023-03-22T01:47:55.552Z,66.39
2023-03-22T01:50:22.490Z,66.05
2023-03-22T01:52:49.851Z,66.00
2023-03-22T01:55:18.346Z,66.06
2023-03-22T01:57:44.992Z,66.04
2023-03-22T02:00:16.019Z,66.10
2023-03-22T02:02:43.655Z,65.41
2023-03-22T02:05:10.340Z,65.76
2023-03-22T02:07:37.735Z,66.11
2023-03-22T02:10:05.095Z,65.48
2023-03-22T02:12:37.660Z,66.06
2023-03-22T02:15:28.790Z,66.18
2023-03-22T02:18:06.381Z,65.98
2023-03-22T02:20:40.122Z,66.13
2023-03-22T02:23:28.194Z,66.04
2023-03-22T02:26:13.408Z,66.23
2023-03-22T02:29:08.337Z,66.00
2023-03-22T02:31:41.028Z,66.18
2023-03-22T02:34:34.336Z,65.63
2023-03-22T02:37:22.733Z,65.54
2023-03-22T02:40:08.752Z,65.66
2023-03-22T02:42:54.384Z,66.22
2023-03-22T02:45:35.012Z,66.96
2023-03-22T02:48:07.372Z,67.29
2023-03-22T02:50:51.659Z,67.16
2023-03-22T02:53:46.042Z,66.82
2023-03-22T02:56:15.018Z,66.93
2023-03-22T02:58:45.900Z,67.15
2023-03-22T03:01:20.097Z,67.33
2023-03-22T03:03:48.332Z,66.69
2023-03-22T03:06:19.616Z,66.52
2023-03-22T03:08:46.809Z,67.05
2023-03-22T03:11:13.483Z,67.25
2023-03-22T03:13:40.217Z,67.76
2023-03-22T03:16:09.737Z,68.35
2023-03-22T03:18:45.332Z,68.09
2023-03-22T03:21:11.859Z,67.83
2023-03-22T03:24:25.995Z,67.90
2023-03-22T03:27:14.272Z,67.58
2023-03-22T03:29:43.238Z,67.92
2023-03-22T03:32:20.471Z,67.98
2023-03-22T03:34:52.740Z,68.10
2023-03-22T03:37:22.057Z,68.10
2023-03-22T03:40:06.202Z,68.18
2023-03-22T03:42:32.872Z,68.36
2023-03-22T03:44:59.625Z,68.24
2023-03-22T03:47:26.593Z,68.38
2023-03-22T03:49:53.253Z,68.61
2023-03-22T03:52:19.847Z,68.90
2023-03-22T03:54:46.565Z,68.93
2023-03-22T03:57:13.237Z,68.94
2023-03-22T03:59:39.869Z,69.00
2023-03-22T04:02:06.698Z,68.93
2023-03-22T04:04:34.807Z,68.80
2023-03-22T04:07:02.798Z,68.95
2023-03-22T04:09:33.685Z,69.14
2023-03-22T04:12:00.417Z,69.30
2023-03-22T04:14:27.299Z,69.11
2023-03-22T04:16:54.073Z,68.96
2023-03-22T04:19:20.841Z,68.96
2023-03-22T04:21:47.579Z,69.00
2023-03-22T04:24:14.442Z,69.00
2023-03-22T04:26:41.344Z,69.11
2023-03-22T04:29:08.141Z,69.11
2023-03-22T04:31:36.931Z,68.94
2023-03-22T04:34:06.260Z,68.58
2023-03-22T04:36:36.562Z,69.00
2023-03-22T04:39:06.982Z,68.45
2023-03-22T04:41:34.264Z,68.17
2023-03-22T04:44:03.582Z,68.13
2023-03-22T04:46:30.985Z,68.01
2023-03-22T04:48:57.715Z,68.21
2023-03-22T04:51:24.393Z,68.65
2023-03-22T04:53:51.286Z,68.88
2023-03-22T04:56:17.963Z,68.95
2023-03-22T04:58:44.716Z,69.07
2023-03-22T05:01:12.349Z,68.95
2023-03-22T05:03:39.060Z,68.88
2023-03-22T05:06:07.424Z,68.62
2023-03-22T05:08:34.090Z,68.53
2023-03-22T05:11:08.694Z,68.35
2023-03-22T05:13:36.541Z,68.05
2023-03-22T05:16:04.295Z,68.19
2023-03-22T05:18:32.858Z,68.13
2023-03-22T05:21:00.402Z,68.34
2023-03-22T05:23:27.353Z,68.78
2023-03-22T05:25:54.326Z,69.44
2023-03-22T05:28:21.508Z,70.54
2023-03-22T05:30:48.834Z,70.71
2023-03-22T05:33:16.983Z,71.29
2023-03-22T05:35:43.872Z,72.26
2023-03-22T05:38:10.826Z,72.46
2023-03-22T05:40:37.894Z,72.87
2023-03-22T05:43:04.902Z,73.75
2023-03-22T05:45:32.585Z,73.74
2023-03-22T05:47:59.338Z,74.19
2023-03-22T05:50:26.112Z,74.61
2023-03-22T05:52:52.808Z,75.61
2023-03-22T05:55:19.965Z,76.16
2023-03-22T05:57:51.435Z,76.71
2023-03-22T06:00:18.586Z,77.31
2023-03-22T06:02:47.277Z,77.48
2023-03-22T06:05:14.184Z,78.08
2023-03-22T06:07:40.949Z,78.34
2023-03-22T06:10:08.720Z,78.54
2023-03-22T06:12:35.591Z,78.96
2023-03-22T06:15:02.304Z,79.23
2023-03-22T06:17:28.924Z,79.04
2023-03-22T06:19:55.841Z,79.02
2023-03-22T06:22:22.523Z,79.29
2023-03-22T06:24:49.602Z,79.71
2023-03-22T06:27:16.462Z,79.50
2023-03-22T06:29:43.212Z,79.47
2023-03-22T06:32:09.947Z,79.17
2023-03-22T06:34:36.677Z,79.08
2023-03-22T06:37:03.287Z,79.13
2023-03-22T06:39:29.982Z,79.44
2023-03-22T06:41:57.259Z,79.63
2023-03-22T06:44:23.993Z,80.43
2023-03-22T06:46:51.056Z,81.06
2023-03-22T06:49:19.312Z,80.92
2023-03-22T06:51:45.958Z,81.03
2023-03-22T06:54:13.364Z,80.30
2023-03-22T06:56:40.110Z,79.74
2023-03-22T06:59:06.800Z,79.45
2023-03-22T07:01:33.613Z,78.61
2023-03-22T07:04:00.558Z,77.64
2023-03-22T07:06:27.312Z,74.76
2023-03-22T07:08:53.919Z,74.43
2023-03-22T07:11:20.674Z,75.12
2023-03-22T07:13:47.346Z,75.86
2023-03-22T07:16:13.991Z,76.28
2023-03-22T07:18:40.712Z,77.10
2023-03-22T07:21:07.401Z,79.24
2023-03-22T07:23:34.069Z,78.89
2023-03-22T07:26:00.913Z,78.00
2023-03-22T07:28:27.910Z,78.28
2023-03-22T07:31:01.467Z,76.87
2023-03-22T07:33:28.287Z,77.21
2023-03-22T07:35:55.346Z,77.91
2023-03-22T07:38:22.011Z,77.93
2023-03-22T07:40:50.701Z,78.52
2023-03-22T07:43:17.677Z,78.98
2023-03-22T07:45:44.332Z,78.25
2023-03-22T07:48:11.862Z,78.57
2023-03-22T07:50:38.909Z,78.95
2023-03-22T07:53:05.837Z,79.77
2023-03-22T07:55:32.470Z,78.89
2023-03-22T07:57:59.102Z,78.62
2023-03-22T08:00:25.795Z,78.86
2023-03-22T08:02:52.600Z,78.12
2023-03-22T08:05:19.391Z,77.45
2023-03-22T08:07:46.225Z,77.88
2023-03-22T08:10:13.114Z,76.74
2023-03-22T08:12:39.871Z,75.51
2023-03-22T08:15:07.216Z,76.37
2023-03-22T08:17:34.009Z,76.29
2023-03-22T08:20:00.751Z,74.80
2023-03-22T08:22:30.022Z,76.30
2023-03-22T08:24:56.688Z,75.60
2023-03-22T08:27:23.611Z,76.03
2023-03-22T08:29:50.622Z,75.66
2023-03-22T08:32:17.522Z,76.90
2023-03-22T08:34:44.238Z,77.31
2023-03-22T08:37:12.077Z,76.57
2023-03-22T08:39:38.920Z,75.59
2023-03-22T08:42:05.700Z,75.63
2023-03-22T08:44:32.583Z,76.54
2023-03-22T08:47:00.003Z,75.73
2023-03-22T08:49:28.106Z,75.55
2023-03-22T08:51:54.976Z,74.79
2023-03-22T08:54:21.668Z,75.92
2023-03-22T08:56:48.372Z,73.62
2023-03-22T08:59:15.143Z,73.69
2023-03-22T09:01:42.598Z,74.29
2023-03-22T09:04:10.740Z,76.27
2023-03-22T09:06:37.728Z,74.85
2023-03-22T09:09:04.495Z,75.45
2023-03-22T09:11:31.167Z,75.07
2023-03-22T09:13:57.914Z,75.16
2023-03-22T09:16:24.729Z,75.51
2023-03-22T09:18:51.424Z,74.34
2023-03-22T09:21:18.174Z,75.04
2023-03-22T09:23:47.801Z,76.93
2023-03-22T09:26:15.461Z,76.73
2023-03-22T09:28:42.387Z,75.69
2023-03-22T09:31:09.714Z,76.32
2023-03-22T09:33:37.760Z,76.17
2023-03-22T09:36:04.994Z,76.65
2023-03-22T09:38:33.652Z,75.75
2023-03-22T09:41:05.586Z,75.44
2023-03-22T09:43:40.117Z,77.37
2023-03-22T09:46:09.927Z,75.92
2023-03-22T09:48:40.773Z,76.76
2023-03-22T09:51:12.854Z,75.44
2023-03-22T09:53:39.608Z,75.71
2023-03-22T09:56:10.707Z,76.25
2023-03-22T09:58:58.050Z,75.33
2023-03-22T10:01:45.853Z,72.62
2023-03-22T10:04:42.169Z,74.32
2023-03-22T10:07:27.566Z,74.12
2023-03-22T10:10:18.941Z,72.78
2023-03-22T10:13:13.891Z,74.56
2023-03-22T10:15:49.647Z,74.31
2023-03-22T10:18:24.544Z,74.42
2023-03-22T10:21:07.352Z,73.04
2023-03-22T10:23:44.150Z,73.00
2023-03-22T10:26:18.131Z,75.14
2023-03-22T10:28:45.445Z,73.41
2023-03-22T10:31:17.693Z,74.73
2023-03-22T10:34:07.549Z,74.49
2023-03-22T10:36:35.376Z,75.43
2023-03-22T10:39:28.656Z,76.59
2023-03-22T10:41:57.903Z,76.84
2023-03-22T10:44:25.464Z,76.53
2023-03-22T10:46:52.316Z,76.34
2023-03-22T10:49:26.294Z,77.57
2023-03-22T10:51:58.366Z,78.41
2023-03-22T10:54:26.141Z,78.45
2023-03-22T10:56:53.102Z,79.34
2023-03-22T10:59:42.338Z,76.65
2023-03-22T11:02:29.924Z,76.03
2023-03-22T11:04:58.589Z,78.26
2023-03-22T11:07:35.601Z,77.36
2023-03-22T11:10:08.392Z,76.28
2023-03-22T11:12:49.712Z,76.06
2023-03-22T11:15:29.458Z,76.14
2023-03-22T11:18:05.744Z,75.59
2023-03-22T11:20:32.856Z,74.76
2023-03-22T11:23:05.065Z,74.49
2023-03-22T11:25:33.414Z,77.18
2023-03-22T11:28:09.626Z,74.63
2023-03-22T11:30:36.450Z,73.70
2023-03-22T11:33:09.162Z,73.84
2023-03-22T11:35:36.980Z,73.50
2023-03-22T11:38:04.068Z,74.00
2023-03-22T11:40:32.318Z,73.88
2023-03-22T11:43:26.686Z,74.18
2023-03-22T11:45:55.435Z,75.10
2023-03-22T11:48:23.413Z,72.85
2023-03-22T11:50:51.951Z,72.76
2023-03-22T11:53:21.465Z,72.80
2023-03-22T11:55:49.321Z,73.80
2023-03-22T11:58:37.426Z,72.99
2023-03-22T12:01:04.360Z,73.64
2023-03-22T12:03:36.727Z,71.47
2023-03-22T12:06:08.237Z,71.72
2023-03-22T12:08:46.357Z,71.07
2023-03-22T12:11:21.854Z,70.56
2023-03-22T12:13:57.631Z,68.94
2023-03-22T12:16:32.273Z,70.46
2023-03-22T12:19:27.160Z,68.68
2023-03-22T12:21:53.862Z,70.90
2023-03-22T12:24:31.327Z,68.54
2023-03-22T12:27:07.505Z,69.84
2023-03-22T12:29:34.350Z,69.70
2023-03-22T12:32:08.579Z,70.14
2023-03-22T12:34:41.054Z,71.80
2023-03-22T12:37:09.331Z,71.26
2023-03-22T12:39:40.149Z,71.54
2023-03-22T12:42:14.065Z,71.36
2023-03-22T12:44:42.333Z,71.97
2023-03-22T12:47:26.479Z,72.25
2023-03-22T12:50:05.444Z,71.73
2023-03-22T12:52:51.453Z,72.37
2023-03-22T12:55:32.619Z,73.91
2023-03-22T12:57:59.363Z,73.12
2023-03-22T13:00:40.075Z,73.05
2023-03-22T13:03:10.407Z,66.74
2023-03-22T13:05:37.671Z,65.33
2023-03-22T13:08:05.664Z,62.81
2023-03-22T13:10:36.910Z,63.25
2023-03-22T13:13:15.492Z,65.55
2023-03-22T13:16:13.502Z,63.64
2023-03-22T13:18:58.135Z,62.24
2023-03-22T13:21:29.966Z,56.51
2023-03-22T13:24:05.262Z,58.71
2023-03-22T13:26:49.419Z,61.07
2023-03-22T13:29:34.377Z,59.92
2023-03-22T13:32:01.646Z,59.89
2023-03-22T13:34:38.302Z,59.79
2023-03-22T13:37:35.086Z,61.55
2023-03-22T13:40:12.963Z,60.58
2023-03-22T13:42:40.120Z,59.64
2023-03-22T13:45:33.804Z,60.79
2023-03-22T13:48:27.217Z,60.33
2023-03-22T13:50:53.863Z,60.26
2023-03-22T13:53:23.785Z,59.89
2023-03-22T13:55:51.636Z,62.67
2023-03-22T13:58:54.082Z,62.78
2023-03-22T14:01:50.331Z,58.61
2023-03-22T14:04:22.869Z,57.71
2023-03-22T14:07:04.354Z,58.23
2023-03-22T14:09:38.586Z,57.54
2023-03-22T14:12:32.719Z,58.15
2023-03-22T14:15:04.061Z,59.55
2023-03-22T14:17:43.970Z,58.65
2023-03-22T14:20:15.927Z,56.21
